Dayton, Maine
Current Conditions -  °F | °C
As of 1:15 PM on Sunday 21 Dec 2014 (Local Time) from KSFM Reporting Station
Broken Clouds Broken Clouds  
Wind Chill: -6°   Ceiling: 4600
Heat Index: -1°   Visibility: 10mi
Dew Point: -8°   Wind: 9mph
Humidity: 60%   Direction: 360°N
Pressure: 30.31"   Gusts: NA
Location:  43.4906°N, 70.5283°W
Report Text: KSFM 211815Z AUTO 36008KT 10SM BKN046 BKN050 M01/M08 A3031 RMK AO1
Loading
Personal Weather Stations






























Interactive Weather Map New forecast layout! Learn more

10-Day Weather Forecast

Advertisements
Track Severe Weather on mobile